createdAt,value
2023-03-19T00:00:32.795Z,43.75
2023-03-19T00:02:59.552Z,43.95
2023-03-19T00:05:26.508Z,44.06
2023-03-19T00:07:53.026Z,43.81
2023-03-19T00:10:19.597Z,43.79
2023-03-19T00:12:46.422Z,43.91
2023-03-19T00:15:14.569Z,43.56
2023-03-19T00:17:44.490Z,43.77
2023-03-19T00:20:12.829Z,43.65
2023-03-19T00:22:40.226Z,43.82
2023-03-19T00:25:08.275Z,43.60
2023-03-19T00:27:35.294Z,43.64
2023-03-19T00:30:02.601Z,43.73
2023-03-19T00:32:29.131Z,43.63
2023-03-19T00:34:55.751Z,43.42
2023-03-19T00:37:22.492Z,43.56
2023-03-19T00:39:49.106Z,43.79
2023-03-19T00:42:15.627Z,43.85
2023-03-19T00:44:42.153Z,43.84
2023-03-19T00:47:08.804Z,43.69
2023-03-19T00:49:35.420Z,43.76
2023-03-19T00:52:01.940Z,43.62
2023-03-19T00:54:28.656Z,43.52
2023-03-19T00:56:56.867Z,43.79
2023-03-19T00:59:25.391Z,43.64
2023-03-19T01:01:52.543Z,43.68
2023-03-19T01:04:20.302Z,43.49
2023-03-19T01:06:46.997Z,43.87
2023-03-19T01:09:13.498Z,43.64
2023-03-19T01:11:40.912Z,43.79
2023-03-19T01:14:08.777Z,43.77
2023-03-19T01:16:35.652Z,43.70
2023-03-19T01:19:03.552Z,43.70
2023-03-19T01:21:33.323Z,43.51
2023-03-19T01:23:59.852Z,43.40
2023-03-19T01:26:28.040Z,43.79
2023-03-19T01:29:00.730Z,43.75
2023-03-19T01:31:28.325Z,43.33
2023-03-19T01:34:14.897Z,43.65
2023-03-19T01:36:52.518Z,43.74
2023-03-19T01:39:26.293Z,43.71
2023-03-19T01:41:53.040Z,43.47
2023-03-19T01:44:38.418Z,43.59
2023-03-19T01:47:29.962Z,43.33
2023-03-19T01:50:25.215Z,43.58
2023-03-19T01:53:21.100Z,43.53
2023-03-19T01:56:08.790Z,43.48
2023-03-19T01:58:50.121Z,43.67
2023-03-19T02:01:32.166Z,43.61
2023-03-19T02:03:59.950Z,43.62
2023-03-19T02:06:30.900Z,43.49
2023-03-19T02:08:59.036Z,43.38
2023-03-19T02:11:26.330Z,43.60
2023-03-19T02:13:53.296Z,43.65
2023-03-19T02:16:20.255Z,43.68
2023-03-19T02:18:47.754Z,43.40
2023-03-19T02:21:19.841Z,43.55
2023-03-19T02:24:03.884Z,43.63
2023-03-19T02:26:50.109Z,43.55
2023-03-19T02:29:17.352Z,43.72
2023-03-19T02:31:45.903Z,43.67
2023-03-19T02:34:21.886Z,43.49
2023-03-19T02:36:58.976Z,43.43
2023-03-19T02:39:34.901Z,43.75
2023-03-19T02:42:03.003Z,43.44
2023-03-19T02:44:31.037Z,43.41
2023-03-19T02:46:57.655Z,43.30
2023-03-19T02:49:24.663Z,43.26
2023-03-19T02:51:51.652Z,43.44
2023-03-19T02:54:18.152Z,43.49
2023-03-19T02:56:44.631Z,43.66
2023-03-19T02:59:11.106Z,43.47
2023-03-19T03:01:37.811Z,43.21
2023-03-19T03:04:05.149Z,43.42
2023-03-19T03:06:32.296Z,43.47
2023-03-19T03:09:01.475Z,43.50
2023-03-19T03:11:28.197Z,43.40
2023-03-19T03:13:54.732Z,43.57
2023-03-19T03:16:21.691Z,43.29
2023-03-19T03:18:48.427Z,43.51
2023-03-19T03:21:15.390Z,43.43
2023-03-19T03:23:42.076Z,43.38
2023-03-19T03:26:08.643Z,43.41
2023-03-19T03:28:35.515Z,43.47
2023-03-19T03:31:02.724Z,43.39
2023-03-19T03:33:29.598Z,43.40
2023-03-19T03:35:56.643Z,43.36
2023-03-19T03:38:23.665Z,43.49
2023-03-19T03:40:52.457Z,43.31
2023-03-19T03:43:21.247Z,43.42
2023-03-19T03:45:48.778Z,43.46
2023-03-19T03:48:17.002Z,43.67
2023-03-19T03:50:43.903Z,43.49
2023-03-19T03:53:15.416Z,43.58
2023-03-19T03:55:42.080Z,43.48
2023-03-19T03:58:08.937Z,43.33
2023-03-19T04:00:36.095Z,43.46
2023-03-19T04:03:03.105Z,43.43
2023-03-19T04:05:29.770Z,43.23
2023-03-19T04:07:57.124Z,43.07
2023-03-19T04:10:24.234Z,43.24
2023-03-19T04:12:50.864Z,43.32
2023-03-19T04:15:17.775Z,43.35
2023-03-19T04:17:46.052Z,43.76
2023-03-19T04:20:13.577Z,43.34
2023-03-19T04:22:40.519Z,43.59
2023-03-19T04:25:09.292Z,43.38
2023-03-19T04:27:37.425Z,43.38
2023-03-19T04:30:04.933Z,43.47
2023-03-19T04:32:31.682Z,43.39
2023-03-19T04:34:58.996Z,43.27
2023-03-19T04:37:25.590Z,43.70
2023-03-19T04:39:52.120Z,43.65
2023-03-19T04:42:19.107Z,43.56
2023-03-19T04:44:52.495Z,43.39
2023-03-19T04:47:19.544Z,43.35
2023-03-19T04:49:53.326Z,43.69
2023-03-19T04:52:20.858Z,43.30
2023-03-19T04:54:48.767Z,43.31
2023-03-19T04:57:15.977Z,43.20
2023-03-19T04:59:44.880Z,43.63
2023-03-19T05:02:13.965Z,43.39
2023-03-19T05:04:41.376Z,43.49
2023-03-19T05:07:11.672Z,43.18
2023-03-19T05:09:38.367Z,43.49
2023-03-19T05:12:05.125Z,43.58
2023-03-19T05:14:37.581Z,43.44
2023-03-19T05:17:25.130Z,43.44
2023-03-19T05:20:09.810Z,43.50
2023-03-19T05:22:39.264Z,43.29
2023-03-19T05:25:06.913Z,43.55
2023-03-19T05:27:34.322Z,43.52
2023-03-19T05:30:05.838Z,43.40
2023-03-19T05:32:57.598Z,43.39
2023-03-19T05:35:32.416Z,43.65
2023-03-19T05:38:01.132Z,43.25
2023-03-19T05:40:29.343Z,43.20
2023-03-19T05:42:58.210Z,43.26
2023-03-19T05:45:27.853Z,43.20
2023-03-19T05:47:58.158Z,43.24
2023-03-19T05:50:25.797Z,43.56
2023-03-19T05:53:19.000Z,43.42
2023-03-19T05:55:59.876Z,43.21
2023-03-19T05:58:28.183Z,43.42
2023-03-19T06:00:58.702Z,43.57
2023-03-19T06:03:27.166Z,43.19
2023-03-19T06:05:54.692Z,43.24
2023-03-19T06:08:42.772Z,43.49
2023-03-19T06:11:15.975Z,43.20
2023-03-19T06:13:46.218Z,43.18
2023-03-19T06:16:16.789Z,43.32
2023-03-19T06:18:53.896Z,43.06
2023-03-19T06:21:20.783Z,43.61
2023-03-19T06:23:47.360Z,43.22
2023-03-19T06:26:18.361Z,43.17
2023-03-19T06:28:52.574Z,43.30
2023-03-19T06:31:19.793Z,43.38
2023-03-19T06:34:02.103Z,43.42
2023-03-19T06:36:37.832Z,43.45
2023-03-19T06:39:05.182Z,43.29
2023-03-19T06:41:31.921Z,43.34
2023-03-19T06:44:09.451Z,43.52
2023-03-19T06:46:36.055Z,43.33
2023-03-19T06:49:02.896Z,43.57
2023-03-19T06:51:29.336Z,43.42
2023-03-19T06:53:56.603Z,43.24
2023-03-19T06:56:23.193Z,43.38
2023-03-19T06:58:49.663Z,43.27
2023-03-19T07:01:16.746Z,43.11
2023-03-19T07:03:43.472Z,43.27
2023-03-19T07:06:10.279Z,43.39
2023-03-19T07:08:36.776Z,43.33
2023-03-19T07:11:05.617Z,43.40
2023-03-19T07:13:33.056Z,43.35
2023-03-19T07:16:00.587Z,43.18
2023-03-19T07:18:27.238Z,43.26
2023-03-19T07:20:53.895Z,43.42
2023-03-19T07:23:20.602Z,43.50
2023-03-19T07:25:47.738Z,43.38
2023-03-19T07:28:15.308Z,43.24
2023-03-19T07:30:42.104Z,43.22
2023-03-19T07:33:08.867Z,43.44
2023-03-19T07:35:35.716Z,43.41
2023-03-19T07:38:02.790Z,43.33
2023-03-19T07:40:29.486Z,43.39
2023-03-19T07:42:56.006Z,43.72
2023-03-19T07:45:23.588Z,43.35
2023-03-19T07:47:51.468Z,43.45
2023-03-19T07:50:18.164Z,43.43
2023-03-19T07:52:49.142Z,43.42
2023-03-19T07:55:17.289Z,43.40
2023-03-19T07:57:43.776Z,43.56
2023-03-19T08:00:11.217Z,43.29
2023-03-19T08:02:40.759Z,43.26
2023-03-19T08:05:07.970Z,43.19
2023-03-19T08:07:34.524Z,43.20
2023-03-19T08:10:01.037Z,43.22
2023-03-19T08:12:27.621Z,43.32
2023-03-19T08:14:54.635Z,43.49
2023-03-19T08:17:21.436Z,43.36
2023-03-19T08:19:47.988Z,43.23
2023-03-19T08:22:14.515Z,43.54
2023-03-19T08:24:41.010Z,43.49
2023-03-19T08:27:08.678Z,43.74
2023-03-19T08:29:35.387Z,43.70
2023-03-19T08:32:01.931Z,43.75
2023-03-19T08:34:28.481Z,44.04
2023-03-19T08:36:55.089Z,43.88
2023-03-19T08:39:21.626Z,44.07
2023-03-19T08:41:48.088Z,43.88
2023-03-19T08:44:14.546Z,43.78
2023-03-19T08:46:42.764Z,44.26
2023-03-19T08:49:09.336Z,43.88
2023-03-19T08:51:39.096Z,43.95
2023-03-19T08:54:05.842Z,43.82
2023-03-19T08:56:32.331Z,44.00
2023-03-19T08:58:58.828Z,44.05
2023-03-19T09:01:25.651Z,44.09
2023-03-19T09:03:52.474Z,44.09
2023-03-19T09:06:19.041Z,44.02
2023-03-19T09:08:46.127Z,44.25
2023-03-19T09:11:14.484Z,44.03
2023-03-19T09:13:41.025Z,44.35
2023-03-19T09:16:07.653Z,44.08
2023-03-19T09:18:35.213Z,44.12
2023-03-19T09:21:02.167Z,44.38
2023-03-19T09:23:29.531Z,44.00
2023-03-19T09:25:56.056Z,44.36
2023-03-19T09:28:23.064Z,44.15
2023-03-19T09:30:51.447Z,44.44
2023-03-19T09:33:19.390Z,44.30
2023-03-19T09:35:52.185Z,43.71
2023-03-19T09:38:20.658Z,43.85
2023-03-19T09:40:53.086Z,44.04
2023-03-19T09:43:37.602Z,43.45
2023-03-19T09:46:26.633Z,43.73
2023-03-19T09:49:16.151Z,43.58
2023-03-19T09:51:57.276Z,43.79
2023-03-19T09:54:29.853Z,43.76
2023-03-19T09:56:56.693Z,43.51
2023-03-19T09:59:25.718Z,43.59
2023-03-19T10:02:13.865Z,43.65
2023-03-19T10:05:05.458Z,43.50
2023-03-19T10:08:04.366Z,43.59
2023-03-19T10:10:37.630Z,43.62
2023-03-19T10:13:30.326Z,43.24
2023-03-19T10:16:00.718Z,43.61
2023-03-19T10:18:36.994Z,43.63
2023-03-19T10:21:19.245Z,43.37
2023-03-19T10:23:54.434Z,43.65
2023-03-19T10:26:26.385Z,43.65
2023-03-19T10:29:04.566Z,43.48
2023-03-19T10:31:43.816Z,43.46
2023-03-19T10:34:31.675Z,43.50
2023-03-19T10:37:13.841Z,43.48
2023-03-19T10:39:43.800Z,43.38
2023-03-19T10:42:33.224Z,43.22
2023-03-19T10:45:16.207Z,43.52
2023-03-19T10:47:43.569Z,43.62
2023-03-19T10:50:40.328Z,43.34
2023-03-19T10:53:28.954Z,43.41
2023-03-19T10:56:01.438Z,43.38
2023-03-19T10:58:30.957Z,43.29
2023-03-19T11:01:12.708Z,43.37
2023-03-19T11:03:49.741Z,43.34
2023-03-19T11:06:19.899Z,43.59
2023-03-19T11:09:10.408Z,43.51
2023-03-19T11:11:45.371Z,43.43
2023-03-19T11:14:23.551Z,43.27
2023-03-19T11:17:16.203Z,43.43
2023-03-19T11:19:49.291Z,43.33
2023-03-19T11:22:21.086Z,43.48
2023-03-19T11:24:55.544Z,43.33
2023-03-19T11:27:36.103Z,43.17
2023-03-19T11:30:07.673Z,43.67
2023-03-19T11:32:57.183Z,43.62
2023-03-19T11:35:28.779Z,43.43
2023-03-19T11:37:58.110Z,43.29
2023-03-19T11:40:44.653Z,43.37
2023-03-19T11:43:22.042Z,43.29
2023-03-19T11:45:58.385Z,43.64
2023-03-19T11:48:31.430Z,43.44
2023-03-19T11:51:17.896Z,43.44
2023-03-19T11:53:58.405Z,43.36
2023-03-19T11:56:36.915Z,43.42
2023-03-19T11:59:32.026Z,43.61
2023-03-19T12:02:32.991Z,43.32
2023-03-19T12:05:14.614Z,43.50
2023-03-19T12:08:07.462Z,43.39
2023-03-19T12:10:42.616Z,43.37
2023-03-19T12:13:15.373Z,43.57
2023-03-19T12:15:57.098Z,43.66
2023-03-19T12:18:59.708Z,43.73
2023-03-19T12:21:52.672Z,43.93
2023-03-19T12:24:37.956Z,44.00
2023-03-19T12:27:36.492Z,44.04
2023-03-19T12:30:18.363Z,44.02
2023-03-19T12:32:58.060Z,44.36
2023-03-19T12:35:36.105Z,44.18
2023-03-19T12:38:24.301Z,44.26
2023-03-19T12:41:03.577Z,44.07
2023-03-19T12:44:09.214Z,44.53
2023-03-19T12:46:51.868Z,44.22
2023-03-19T12:49:24.591Z,44.53
2023-03-19T12:52:02.151Z,44.37
2023-03-19T12:54:36.430Z,43.94
2023-03-19T12:57:09.028Z,43.90
2023-03-19T12:59:58.688Z,44.34
2023-03-19T13:02:33.858Z,44.05
2023-03-19T13:05:09.340Z,43.92
2023-03-19T13:07:50.283Z,43.95
2023-03-19T13:10:21.268Z,43.95
2023-03-19T13:12:49.921Z,44.00
2023-03-19T13:15:41.599Z,44.05
2023-03-19T13:18:50.233Z,44.26
2023-03-19T13:21:25.131Z,44.00
2023-03-19T13:24:07.519Z,44.32
2023-03-19T13:26:34.817Z,44.36
2023-03-19T13:29:24.414Z,44.30
2023-03-19T13:31:52.082Z,44.51
2023-03-19T13:34:21.502Z,44.20
2023-03-19T13:37:01.593Z,44.09
2023-03-19T13:39:31.328Z,44.21
2023-03-19T13:42:09.768Z,44.02
2023-03-19T13:44:41.388Z,43.94
2023-03-19T13:47:26.496Z,44.08
2023-03-19T13:50:12.775Z,44.38
2023-03-19T13:52:39.199Z,44.19
2023-03-19T13:55:24.329Z,44.06
2023-03-19T13:58:27.868Z,43.94
2023-03-19T14:00:59.294Z,44.37
2023-03-19T14:03:29.899Z,44.17
2023-03-19T14:05:57.610Z,44.18
2023-03-19T14:08:27.540Z,44.31
2023-03-19T14:10:57.948Z,44.08
2023-03-19T14:13:48.105Z,44.05
2023-03-19T14:16:26.562Z,44.22
2023-03-19T14:19:00.434Z,44.37
2023-03-19T14:22:02.546Z,44.25
2023-03-19T14:24:55.407Z,44.18
2023-03-19T14:27:27.431Z,44.29
2023-03-19T14:29:56.544Z,44.65
2023-03-19T14:32:29.990Z,44.44
2023-03-19T14:34:56.858Z,44.29
2023-03-19T14:37:25.880Z,44.47
2023-03-19T14:40:17.457Z,44.07
2023-03-19T14:42:54.758Z,44.17
2023-03-19T14:45:41.730Z,44.17
2023-03-19T14:48:35.136Z,44.37
2023-03-19T14:51:13.187Z,44.12
2023-03-19T14:53:41.903Z,44.33
2023-03-19T14:56:15.337Z,44.44
2023-03-19T14:58:50.404Z,44.16
2023-03-19T15:01:17.349Z,44.38
2023-03-19T15:03:44.173Z,44.26
2023-03-19T15:06:15.432Z,44.34
2023-03-19T15:08:42.835Z,44.33
2023-03-19T15:11:16.222Z,44.38
2023-03-19T15:13:51.769Z,44.24
2023-03-19T15:16:38.556Z,44.31
2023-03-19T15:19:12.164Z,44.46
2023-03-19T15:21:39.600Z,44.16
2023-03-19T15:24:13.244Z,44.09
2023-03-19T15:26:39.890Z,44.54
2023-03-19T15:29:11.957Z,44.31
2023-03-19T15:32:02.418Z,44.45
2023-03-19T15:34:31.223Z,44.30
2023-03-19T15:37:04.760Z,44.44
2023-03-19T15:39:37.268Z,44.42
2023-03-19T15:42:04.995Z,44.31
2023-03-19T15:44:41.311Z,44.32
2023-03-19T15:47:12.148Z,44.52
2023-03-19T15:49:44.018Z,44.30
2023-03-19T15:52:14.770Z,44.20
2023-03-19T15:54:42.384Z,44.31
2023-03-19T15:57:13.908Z,44.14
2023-03-19T15:59:41.965Z,44.40
2023-03-19T16:02:35.419Z,44.65
2023-03-19T16:08:01.038Z,44.61
2023-03-19T16:10:33.079Z,44.62
2023-03-19T16:13:04.126Z,44.56
2023-03-19T16:15:44.635Z,44.67
2023-03-19T16:18:18.017Z,44.73
2023-03-19T16:20:47.399Z,44.81
2023-03-19T16:23:18.513Z,45.00
2023-03-19T16:25:46.456Z,44.83
2023-03-19T16:28:18.409Z,44.87
2023-03-19T16:30:48.579Z,45.19
2023-03-19T16:33:15.377Z,45.20
2023-03-19T16:35:44.585Z,45.32
2023-03-19T16:38:18.117Z,45.26
2023-03-19T16:40:47.072Z,45.35
2023-03-19T16:43:25.181Z,45.32
2023-03-19T16:46:04.905Z,45.61
2023-03-19T16:48:31.511Z,45.80
2023-03-19T16:50:58.083Z,45.65
2023-03-19T16:53:27.159Z,45.74
2023-03-19T16:55:56.186Z,45.63
2023-03-19T16:58:31.648Z,46.00
2023-03-19T17:00:59.012Z,45.89
2023-03-19T17:03:26.112Z,45.71
2023-03-19T17:05:52.681Z,45.83
2023-03-19T17:08:21.734Z,45.77
2023-03-19T17:10:50.792Z,45.78
2023-03-19T17:13:30.105Z,46.05
2023-03-19T17:16:00.888Z,45.67
2023-03-19T17:18:31.449Z,45.55
2023-03-19T17:21:04.198Z,45.74
2023-03-19T17:23:30.915Z,46.28
2023-03-19T17:25:57.632Z,46.28
2023-03-19T17:28:24.740Z,46.07
2023-03-19T17:30:51.628Z,46.59
2023-03-19T17:33:29.777Z,46.29
2023-03-19T17:35:58.532Z,46.16
2023-03-19T17:38:32.691Z,46.29
2023-03-19T17:40:59.325Z,46.08
2023-03-19T17:43:25.857Z,46.32
2023-03-19T17:45:55.404Z,46.16
2023-03-19T17:48:25.761Z,46.33
2023-03-19T17:50:57.211Z,46.38
2023-03-19T17:53:23.807Z,46.14
2023-03-19T17:55:50.307Z,46.41
2023-03-19T17:58:19.408Z,46.05
2023-03-19T18:00:47.818Z,46.33
2023-03-19T18:03:20.985Z,46.06
2023-03-19T18:05:47.864Z,46.28
2023-03-19T18:08:17.305Z,46.16
2023-03-19T18:10:44.162Z,46.10
2023-03-19T18:13:11.306Z,46.16
2023-03-19T18:15:40.128Z,46.17
2023-03-19T18:18:11.221Z,46.22
2023-03-19T18:20:40.029Z,46.16
2023-03-19T18:23:07.272Z,45.76
2023-03-19T18:25:35.642Z,46.12
2023-03-19T18:28:03.493Z,46.20
2023-03-19T18:30:32.617Z,46.01
2023-03-19T18:33:03.165Z,45.78
2023-03-19T18:35:33.735Z,46.03
2023-03-19T18:38:00.754Z,45.82
2023-03-19T18:40:29.987Z,45.86
2023-03-19T18:42:57.028Z,45.91
2023-03-19T18:45:28.837Z,46.03
2023-03-19T18:47:56.927Z,46.14
2023-03-19T18:50:32.388Z,46.19
2023-03-19T18:52:59.136Z,46.36
2023-03-19T18:55:30.404Z,46.15
2023-03-19T18:58:02.162Z,46.10
2023-03-19T19:00:35.143Z,46.19
2023-03-19T19:03:02.556Z,46.32
2023-03-19T19:05:31.194Z,46.36
2023-03-19T19:08:00.465Z,46.13
2023-03-19T19:10:32.934Z,46.24
2023-03-19T19:13:01.278Z,46.25
2023-03-19T19:15:34.417Z,46.15
2023-03-19T19:18:05.882Z,46.51
2023-03-19T19:20:32.534Z,46.36
2023-03-19T19:22:59.112Z,46.52
2023-03-19T19:25:28.436Z,46.47
2023-03-19T19:28:00.851Z,46.46
2023-03-19T19:30:28.168Z,46.71
2023-03-19T19:32:54.774Z,46.61
2023-03-19T19:35:24.305Z,46.64
2023-03-19T19:37:51.428Z,46.35
2023-03-19T19:40:21.118Z,46.52
2023-03-19T19:42:51.908Z,46.42
2023-03-19T19:45:31.612Z,46.44
2023-03-19T19:47:59.143Z,46.47
2023-03-19T19:50:27.695Z,46.41
2023-03-19T19:52:55.675Z,46.55
2023-03-19T19:55:23.644Z,46.45
2023-03-19T19:57:51.013Z,46.54
2023-03-19T20:00:19.763Z,46.74
2023-03-19T20:02:46.660Z,46.29
2023-03-19T20:05:23.320Z,46.46
2023-03-19T20:07:51.543Z,46.21
2023-03-19T20:10:19.686Z,46.48
2023-03-19T20:12:49.213Z,46.75
2023-03-19T20:15:23.094Z,46.46
2023-03-19T20:17:51.834Z,46.53
2023-03-19T20:20:28.059Z,46.58
2023-03-19T20:22:55.847Z,46.65
2023-03-19T20:25:25.382Z,46.58
2023-03-19T20:27:54.696Z,46.62
2023-03-19T20:30:30.919Z,46.13
2023-03-19T20:32:59.677Z,46.49
2023-03-19T20:35:31.586Z,46.39
2023-03-19T20:38:00.235Z,46.62
2023-03-19T20:40:48.985Z,46.64
2023-03-19T20:43:32.693Z,46.46
2023-03-19T20:46:05.828Z,46.58
2023-03-19T20:48:33.676Z,46.63
2023-03-19T20:51:02.065Z,46.61
2023-03-19T20:53:29.124Z,46.15
2023-03-19T20:55:56.342Z,46.46
2023-03-19T20:58:29.805Z,46.40
2023-03-19T21:00:58.471Z,46.24
2023-03-19T21:03:30.669Z,46.48
2023-03-19T21:06:16.734Z,46.52
2023-03-19T21:08:47.506Z,46.47
2023-03-19T21:11:19.398Z,46.34
2023-03-19T21:13:47.986Z,46.18
2023-03-19T21:16:19.759Z,46.32
2023-03-19T21:18:47.245Z,46.51
2023-03-19T21:21:15.641Z,46.61
2023-03-19T21:23:53.736Z,46.35
2023-03-19T21:26:24.049Z,46.56
2023-03-19T21:29:02.862Z,46.55
2023-03-19T21:31:29.454Z,46.47
2023-03-19T21:33:58.421Z,46.13
2023-03-19T21:36:25.559Z,46.32
2023-03-19T21:38:52.517Z,46.66
2023-03-19T21:41:24.818Z,46.55
2023-03-19T21:43:57.292Z,46.28
2023-03-19T21:46:26.473Z,46.37
2023-03-19T21:48:54.501Z,46.36
2023-03-19T21:51:22.550Z,46.30
2023-03-19T21:53:49.518Z,46.74
2023-03-19T21:56:25.026Z,46.20
2023-03-19T21:58:52.888Z,46.52
2023-03-19T22:01:24.719Z,46.36
2023-03-19T22:03:55.946Z,46.33
2023-03-19T22:06:24.178Z,46.04
2023-03-19T22:08:53.709Z,46.37
2023-03-19T22:11:27.396Z,46.34
2023-03-19T22:13:58.378Z,46.51
2023-03-19T22:16:25.258Z,46.49
2023-03-19T22:18:52.473Z,46.48
2023-03-19T22:21:21.813Z,46.43
2023-03-19T22:23:48.778Z,46.29
2023-03-19T22:26:29.180Z,46.29
2023-03-19T22:28:58.557Z,46.22
2023-03-19T22:31:25.471Z,46.27
2023-03-19T22:33:52.304Z,46.44
2023-03-19T22:36:18.882Z,46.21
2023-03-19T22:38:46.900Z,46.40
2023-03-19T22:41:18.216Z,46.10
2023-03-19T22:43:45.564Z,46.45
2023-03-19T22:46:15.470Z,46.44
2023-03-19T22:48:45.572Z,46.10
2023-03-19T22:51:17.256Z,46.27
2023-03-19T22:53:44.408Z,46.21
2023-03-19T22:56:12.285Z,46.19
2023-03-19T22:58:38.844Z,46.21
2023-03-19T23:01:29.213Z,46.20
2023-03-19T23:03:56.896Z,46.29
2023-03-19T23:06:30.502Z,46.28
2023-03-19T23:08:57.872Z,46.32
2023-03-19T23:11:24.645Z,46.27
2023-03-19T23:13:55.996Z,46.45
2023-03-19T23:16:25.051Z,46.42
2023-03-19T23:18:52.481Z,46.20
2023-03-19T23:21:20.728Z,46.21
2023-03-19T23:23:47.267Z,46.22
2023-03-19T23:26:27.094Z,46.24
2023-03-19T23:28:54.444Z,45.93
2023-03-19T23:31:21.094Z,45.99
2023-03-19T23:33:47.727Z,46.27
2023-03-19T23:36:14.631Z,45.99
2023-03-19T23:38:41.532Z,46.23
2023-03-19T23:41:17.938Z,45.96
2023-03-19T23:43:44.478Z,46.01
2023-03-19T23:46:11.121Z,46.19
2023-03-19T23:48:41.197Z,46.19
2023-03-19T23:51:12.924Z,46.12
2023-03-19T23:53:40.541Z,46.19
2023-03-19T23:56:17.187Z,46.21
2023-03-19T23:58:44.108Z,46.15
